sensor_id;sensor_type;location;lat;lon;timestamp;P1;durP1;ratioP1;P2;durP2;ratioP2
1545;SDS011;766;51.502;9.752;2023-03-14T00:02:15;2.00;;;0.95;;
1545;SDS011;766;51.502;9.752;2023-03-14T00:04:44;1.33;;;0.85;;
1545;SDS011;766;51.502;9.752;2023-03-14T00:07:13;1.30;;;0.88;;
1545;SDS011;766;51.502;9.752;2023-03-14T00:09:43;1.08;;;0.90;;
1545;SDS011;766;51.502;9.752;2023-03-14T00:12:12;2.67;;;1.13;;
1545;SDS011;766;51.502;9.752;2023-03-14T00:14:40;2.50;;;0.85;;
1545;SDS011;766;51.502;9.752;2023-03-14T00:17:13;2.38;;;0.80;;
1545;SDS011;766;51.502;9.752;2023-03-14T00:19:41;1.63;;;0.80;;
1545;SDS011;766;51.502;9.752;2023-03-14T00:22:09;3.60;;;1.00;;
1545;SDS011;766;51.502;9.752;2023-03-14T00:24:38;0.82;;;0.73;;
1545;SDS011;766;51.502;9.752;2023-03-14T00:27:09;1.55;;;0.90;;
1545;SDS011;766;51.502;9.752;2023-03-14T00:29:37;2.78;;;1.08;;
1545;SDS011;766;51.502;9.752;2023-03-14T00:32:06;2.00;;;1.00;;
1545;SDS011;766;51.502;9.752;2023-03-14T00:34:34;1.85;;;0.82;;
1545;SDS011;766;51.502;9.752;2023-03-14T00:37:02;3.55;;;0.90;;
1545;SDS011;766;51.502;9.752;2023-03-14T00:39:31;3.22;;;1.20;;
1545;SDS011;766;51.502;9.752;2023-03-14T00:42:02;4.07;;;1.20;;
1545;SDS011;766;51.502;9.752;2023-03-14T00:44:32;1.17;;;0.98;;
1545;SDS011;766;51.502;9.752;2023-03-14T00:47:01;2.33;;;0.88;;
1545;SDS011;766;51.502;9.752;2023-03-14T00:49:29;2.28;;;1.00;;
1545;SDS011;766;51.502;9.752;2023-03-14T00:52:00;1.60;;;0.70;;
1545;SDS011;766;51.502;9.752;2023-03-14T00:54:29;1.60;;;0.80;;
1545;SDS011;766;51.502;9.752;2023-03-14T00:56:57;1.77;;;0.90;;
1545;SDS011;766;51.502;9.752;2023-03-14T00:59:26;2.85;;;0.90;;
1545;SDS011;766;51.502;9.752;2023-03-14T01:01:57;3.13;;;0.73;;
1545;SDS011;766;51.502;9.752;2023-03-14T01:04:26;2.92;;;0.80;;
1545;SDS011;766;51.502;9.752;2023-03-14T01:06:54;1.83;;;0.77;;
1545;SDS011;766;51.502;9.752;2023-03-14T01:09:22;2.75;;;0.82;;
1545;SDS011;766;51.502;9.752;2023-03-14T01:11:51;2.15;;;0.90;;
1545;SDS011;766;51.502;9.752;2023-03-14T01:14:19;2.38;;;0.85;;
1545;SDS011;766;51.502;9.752;2023-03-14T01:16:48;2.13;;;0.75;;
1545;SDS011;766;51.502;9.752;2023-03-14T01:19:17;3.95;;;1.00;;
1545;SDS011;766;51.502;9.752;2023-03-14T01:21:46;1.95;;;0.63;;
1545;SDS011;766;51.502;9.752;2023-03-14T01:24:14;2.80;;;0.90;;
1545;SDS011;766;51.502;9.752;2023-03-14T01:26:42;1.55;;;0.70;;
1545;SDS011;766;51.502;9.752;2023-03-14T01:29:11;1.92;;;0.75;;
1545;SDS011;766;51.502;9.752;2023-03-14T01:31:39;3.38;;;0.70;;
1545;SDS011;766;51.502;9.752;2023-03-14T01:34:07;1.92;;;0.88;;
1545;SDS011;766;51.502;9.752;2023-03-14T01:36:38;3.10;;;1.30;;
1545;SDS011;766;51.502;9.752;2023-03-14T01:39:06;1.38;;;0.80;;
1545;SDS011;766;51.502;9.752;2023-03-14T01:41:36;1.52;;;0.95;;
1545;SDS011;766;51.502;9.752;2023-03-14T01:44:05;1.40;;;1.17;;
1545;SDS011;766;51.502;9.752;2023-03-14T01:46:34;2.33;;;1.10;;
1545;SDS011;766;51.502;9.752;2023-03-14T01:49:07;6.20;;;1.00;;
1545;SDS011;766;51.502;9.752;2023-03-14T01:51:43;2.80;;;1.20;;
1545;SDS011;766;51.502;9.752;2023-03-14T01:54:16;4.53;;;1.65;;
1545;SDS011;766;51.502;9.752;2023-03-14T01:56:50;2.47;;;1.08;;
1545;SDS011;766;51.502;9.752;2023-03-14T01:59:23;4.05;;;1.15;;
1545;SDS011;766;51.502;9.752;2023-03-14T02:01:52;3.90;;;1.55;;
1545;SDS011;766;51.502;9.752;2023-03-14T02:04:26;1.13;;;1.02;;
1545;SDS011;766;51.502;9.752;2023-03-14T02:07:03;4.05;;;1.48;;
1545;SDS011;766;51.502;9.752;2023-03-14T02:09:36;4.43;;;1.20;;
1545;SDS011;766;51.502;9.752;2023-03-14T02:12:06;2.15;;;1.30;;
1545;SDS011;766;51.502;9.752;2023-03-14T02:14:37;3.28;;;1.40;;
1545;SDS011;766;51.502;9.752;2023-03-14T02:17:07;5.10;;;1.60;;
1545;SDS011;766;51.502;9.752;2023-03-14T02:19:53;2.70;;;1.48;;
1545;SDS011;766;51.502;9.752;2023-03-14T02:22:33;3.00;;;1.55;;
1545;SDS011;766;51.502;9.752;2023-03-14T02:25:04;3.60;;;1.48;;
1545;SDS011;766;51.502;9.752;2023-03-14T02:27:38;4.38;;;1.85;;
1545;SDS011;766;51.502;9.752;2023-03-14T02:30:08;7.03;;;2.13;;
1545;SDS011;766;51.502;9.752;2023-03-14T02:32:40;3.33;;;1.67;;
1545;SDS011;766;51.502;9.752;2023-03-14T02:35:11;3.60;;;1.50;;
1545;SDS011;766;51.502;9.752;2023-03-14T02:37:42;5.13;;;1.58;;
1545;SDS011;766;51.502;9.752;2023-03-14T02:40:15;3.22;;;1.70;;
1545;SDS011;766;51.502;9.752;2023-03-14T02:42:46;4.97;;;1.70;;
1545;SDS011;766;51.502;9.752;2023-03-14T02:48:05;3.05;;;1.70;;
1545;SDS011;766;51.502;9.752;2023-03-14T02:50:36;6.47;;;2.33;;
1545;SDS011;766;51.502;9.752;2023-03-14T02:53:06;4.78;;;1.55;;
1545;SDS011;766;51.502;9.752;2023-03-14T02:55:34;5.78;;;2.00;;
1545;SDS011;766;51.502;9.752;2023-03-14T02:58:04;3.58;;;1.80;;
1545;SDS011;766;51.502;9.752;2023-03-14T03:00:32;12.93;;;1.98;;
1545;SDS011;766;51.502;9.752;2023-03-14T03:03:00;5.78;;;2.00;;
1545;SDS011;766;51.502;9.752;2023-03-14T03:05:29;4.55;;;1.90;;
1545;SDS011;766;51.502;9.752;2023-03-14T03:07:57;3.80;;;1.92;;
1545;SDS011;766;51.502;9.752;2023-03-14T03:10:25;8.38;;;2.75;;
1545;SDS011;766;51.502;9.752;2023-03-14T03:12:54;4.90;;;1.65;;
1545;SDS011;766;51.502;9.752;2023-03-14T03:15:24;4.68;;;1.95;;
1545;SDS011;766;51.502;9.752;2023-03-14T03:17:53;8.60;;;1.92;;
1545;SDS011;766;51.502;9.752;2023-03-14T03:20:21;8.25;;;2.20;;
1545;SDS011;766;51.502;9.752;2023-03-14T03:22:49;5.78;;;2.10;;
1545;SDS011;766;51.502;9.752;2023-03-14T03:25:17;5.28;;;1.90;;
1545;SDS011;766;51.502;9.752;2023-03-14T03:27:46;5.80;;;1.75;;
1545;SDS011;766;51.502;9.752;2023-03-14T03:30:14;5.65;;;2.15;;
1545;SDS011;766;51.502;9.752;2023-03-14T03:32:46;9.05;;;2.33;;
1545;SDS011;766;51.502;9.752;2023-03-14T03:35:14;4.93;;;1.90;;
1545;SDS011;766;51.502;9.752;2023-03-14T03:37:44;6.53;;;2.53;;
1545;SDS011;766;51.502;9.752;2023-03-14T03:40:14;5.50;;;2.33;;
1545;SDS011;766;51.502;9.752;2023-03-14T03:42:42;5.50;;;1.98;;
1545;SDS011;766;51.502;9.752;2023-03-14T03:45:10;9.35;;;2.20;;
1545;SDS011;766;51.502;9.752;2023-03-14T03:47:40;6.38;;;2.25;;
1545;SDS011;766;51.502;9.752;2023-03-14T03:50:11;3.78;;;2.20;;
1545;SDS011;766;51.502;9.752;2023-03-14T03:52:40;8.50;;;2.15;;
1545;SDS011;766;51.502;9.752;2023-03-14T03:55:08;4.97;;;2.40;;
1545;SDS011;766;51.502;9.752;2023-03-14T03:57:36;5.05;;;1.95;;
1545;SDS011;766;51.502;9.752;2023-03-14T04:00:05;5.45;;;1.98;;
1545;SDS011;766;51.502;9.752;2023-03-14T04:02:38;6.78;;;2.00;;
1545;SDS011;766;51.502;9.752;2023-03-14T04:05:07;5.07;;;2.00;;
1545;SDS011;766;51.502;9.752;2023-03-14T04:07:37;2.65;;;1.67;;
1545;SDS011;766;51.502;9.752;2023-03-14T04:10:05;3.55;;;1.58;;
1545;SDS011;766;51.502;9.752;2023-03-14T04:12:34;3.75;;;1.70;;
1545;SDS011;766;51.502;9.752;2023-03-14T04:15:03;3.38;;;1.45;;
1545;SDS011;766;51.502;9.752;2023-03-14T04:17:32;6.72;;;1.58;;
1545;SDS011;766;51.502;9.752;2023-03-14T04:20:00;3.72;;;1.77;;
1545;SDS011;766;51.502;9.752;2023-03-14T04:22:31;5.10;;;1.60;;
1545;SDS011;766;51.502;9.752;2023-03-14T04:25:01;3.85;;;1.85;;
1545;SDS011;766;51.502;9.752;2023-03-14T04:27:29;3.97;;;1.50;;
1545;SDS011;766;51.502;9.752;2023-03-14T04:29:58;4.57;;;1.83;;
1545;SDS011;766;51.502;9.752;2023-03-14T04:32:26;7.50;;;2.28;;
1545;SDS011;766;51.502;9.752;2023-03-14T04:34:55;4.72;;;2.08;;
1545;SDS011;766;51.502;9.752;2023-03-14T04:37:23;8.93;;;2.22;;
1545;SDS011;766;51.502;9.752;2023-03-14T04:39:51;7.47;;;1.98;;
1545;SDS011;766;51.502;9.752;2023-03-14T04:42:21;5.03;;;2.00;;
1545;SDS011;766;51.502;9.752;2023-03-14T04:44:50;6.28;;;1.98;;
1545;SDS011;766;51.502;9.752;2023-03-14T04:47:18;4.70;;;2.03;;
1545;SDS011;766;51.502;9.752;2023-03-14T04:49:47;6.53;;;1.88;;
1545;SDS011;766;51.502;9.752;2023-03-14T04:52:15;6.53;;;1.80;;
1545;SDS011;766;51.502;9.752;2023-03-14T04:54:44;4.43;;;1.77;;
1545;SDS011;766;51.502;9.752;2023-03-14T04:57:12;5.20;;;2.00;;
1545;SDS011;766;51.502;9.752;2023-03-14T04:59:42;4.85;;;1.92;;
1545;SDS011;766;51.502;9.752;2023-03-14T05:02:11;7.40;;;2.17;;
1545;SDS011;766;51.502;9.752;2023-03-14T05:04:39;6.18;;;2.00;;
1545;SDS011;766;51.502;9.752;2023-03-14T05:07:07;15.48;;;2.47;;
1545;SDS011;766;51.502;9.752;2023-03-14T05:09:35;8.00;;;2.17;;
1545;SDS011;766;51.502;9.752;2023-03-14T05:12:04;7.10;;;1.73;;
1545;SDS011;766;51.502;9.752;2023-03-14T05:14:32;7.60;;;1.63;;
1545;SDS011;766;51.502;9.752;2023-03-14T05:17:02;6.25;;;1.58;;
1545;SDS011;766;51.502;9.752;2023-03-14T05:19:31;5.28;;;1.65;;
1545;SDS011;766;51.502;9.752;2023-03-14T05:22:01;4.15;;;1.63;;
1545;SDS011;766;51.502;9.752;2023-03-14T05:24:30;5.30;;;1.38;;
1545;SDS011;766;51.502;9.752;2023-03-14T05:27:01;4.72;;;1.60;;
1545;SDS011;766;51.502;9.752;2023-03-14T05:29:30;4.82;;;1.50;;
1545;SDS011;766;51.502;9.752;2023-03-14T05:31:58;7.38;;;1.42;;
1545;SDS011;766;51.502;9.752;2023-03-14T05:34:28;7.38;;;1.88;;
1545;SDS011;766;51.502;9.752;2023-03-14T05:36:56;3.78;;;1.90;;
1545;SDS011;766;51.502;9.752;2023-03-14T05:39:24;6.65;;;2.03;;
1545;SDS011;766;51.502;9.752;2023-03-14T05:41:52;5.80;;;1.92;;
1545;SDS011;766;51.502;9.752;2023-03-14T05:44:22;3.70;;;1.52;;
1545;SDS011;766;51.502;9.752;2023-03-14T05:46:50;5.32;;;1.33;;
1545;SDS011;766;51.502;9.752;2023-03-14T05:49:18;6.50;;;1.60;;
1545;SDS011;766;51.502;9.752;2023-03-14T05:51:48;3.40;;;1.58;;
1545;SDS011;766;51.502;9.752;2023-03-14T05:54:17;5.78;;;1.35;;
1545;SDS011;766;51.502;9.752;2023-03-14T05:56:45;7.13;;;1.88;;
1545;SDS011;766;51.502;9.752;2023-03-14T05:59:13;7.13;;;2.03;;
1545;SDS011;766;51.502;9.752;2023-03-14T06:01:42;8.60;;;1.60;;
1545;SDS011;766;51.502;9.752;2023-03-14T06:04:11;4.28;;;1.42;;
1545;SDS011;766;51.502;9.752;2023-03-14T06:07:08;6.75;;;1.58;;
1545;SDS011;766;51.502;9.752;2023-03-14T06:09:37;5.93;;;1.60;;
1545;SDS011;766;51.502;9.752;2023-03-14T06:12:06;5.55;;;1.50;;
1545;SDS011;766;51.502;9.752;2023-03-14T06:14:35;7.68;;;1.60;;
1545;SDS011;766;51.502;9.752;2023-03-14T06:17:06;3.22;;;1.15;;
1545;SDS011;766;51.502;9.752;2023-03-14T06:19:34;6.55;;;1.50;;
1545;SDS011;766;51.502;9.752;2023-03-14T06:22:03;7.03;;;1.77;;
1545;SDS011;766;51.502;9.752;2023-03-14T06:24:32;3.72;;;1.45;;
1545;SDS011;766;51.502;9.752;2023-03-14T06:27:01;2.47;;;1.13;;
1545;SDS011;766;51.502;9.752;2023-03-14T06:29:30;7.95;;;2.00;;
1545;SDS011;766;51.502;9.752;2023-03-14T06:31:58;4.25;;;1.42;;
1545;SDS011;766;51.502;9.752;2023-03-14T06:34:27;4.82;;;1.77;;
1545;SDS011;766;51.502;9.752;2023-03-14T06:36:56;4.15;;;1.40;;
1545;SDS011;766;51.502;9.752;2023-03-14T06:39:24;3.70;;;1.60;;
1545;SDS011;766;51.502;9.752;2023-03-14T06:41:54;5.90;;;1.50;;
1545;SDS011;766;51.502;9.752;2023-03-14T06:44:23;3.92;;;1.40;;
1545;SDS011;766;51.502;9.752;2023-03-14T06:46:51;4.68;;;1.45;;
1545;SDS011;766;51.502;9.752;2023-03-14T06:49:19;6.10;;;1.92;;
1545;SDS011;766;51.502;9.752;2023-03-14T06:51:48;2.92;;;1.20;;
1545;SDS011;766;51.502;9.752;2023-03-14T06:54:16;7.68;;;1.38;;
1545;SDS011;766;51.502;9.752;2023-03-14T06:56:45;3.92;;;1.25;;
1545;SDS011;766;51.502;9.752;2023-03-14T06:59:15;5.05;;;1.30;;
1545;SDS011;766;51.502;9.752;2023-03-14T07:01:43;5.32;;;1.30;;
1545;SDS011;766;51.502;9.752;2023-03-14T07:04:12;3.03;;;1.08;;
1545;SDS011;766;51.502;9.752;2023-03-14T07:06:40;4.47;;;1.33;;
1545;SDS011;766;51.502;9.752;2023-03-14T07:09:10;6.80;;;1.90;;
1545;SDS011;766;51.502;9.752;2023-03-14T07:11:39;5.03;;;1.20;;
1545;SDS011;766;51.502;9.752;2023-03-14T07:14:08;3.40;;;1.35;;
1545;SDS011;766;51.502;9.752;2023-03-14T07:16:38;4.07;;;1.20;;
1545;SDS011;766;51.502;9.752;2023-03-14T07:19:09;6.22;;;1.63;;
1545;SDS011;766;51.502;9.752;2023-03-14T07:21:38;5.38;;;1.48;;
1545;SDS011;766;51.502;9.752;2023-03-14T07:24:07;5.75;;;1.48;;
1545;SDS011;766;51.502;9.752;2023-03-14T07:26:35;5.82;;;1.80;;
1545;SDS011;766;51.502;9.752;2023-03-14T07:29:04;5.50;;;1.52;;
1545;SDS011;766;51.502;9.752;2023-03-14T07:31:32;4.90;;;1.90;;
1545;SDS011;766;51.502;9.752;2023-03-14T07:34:02;2.10;;;1.60;;
1545;SDS011;766;51.502;9.752;2023-03-14T07:36:30;4.10;;;1.83;;
1545;SDS011;766;51.502;9.752;2023-03-14T07:38:59;3.58;;;1.30;;
1545;SDS011;766;51.502;9.752;2023-03-14T07:41:27;4.43;;;1.15;;
1545;SDS011;766;51.502;9.752;2023-03-14T07:43:56;6.05;;;1.13;;
1545;SDS011;766;51.502;9.752;2023-03-14T07:46:24;3.70;;;1.35;;
1545;SDS011;766;51.502;9.752;2023-03-14T07:48:53;12.07;;;1.30;;
1545;SDS011;766;51.502;9.752;2023-03-14T07:51:23;3.72;;;1.17;;
1545;SDS011;766;51.502;9.752;2023-03-14T07:53:53;3.05;;;0.95;;
1545;SDS011;766;51.502;9.752;2023-03-14T07:56:22;4.22;;;1.88;;
1545;SDS011;766;51.502;9.752;2023-03-14T07:58:50;2.17;;;1.02;;
1545;SDS011;766;51.502;9.752;2023-03-14T08:01:18;3.63;;;1.30;;
1545;SDS011;766;51.502;9.752;2023-03-14T08:03:47;1.73;;;0.98;;
1545;SDS011;766;51.502;9.752;2023-03-14T08:06:16;2.10;;;1.20;;
1545;SDS011;766;51.502;9.752;2023-03-14T08:08:46;2.28;;;1.30;;
1545;SDS011;766;51.502;9.752;2023-03-14T08:11:14;1.45;;;1.05;;
1545;SDS011;766;51.502;9.752;2023-03-14T08:13:43;2.60;;;1.35;;
1545;SDS011;766;51.502;9.752;2023-03-14T08:16:15;3.80;;;1.00;;
1545;SDS011;766;51.502;9.752;2023-03-14T08:18:44;5.05;;;1.05;;
1545;SDS011;766;51.502;9.752;2023-03-14T08:21:13;3.63;;;1.20;;
1545;SDS011;766;51.502;9.752;2023-03-14T08:23:41;2.90;;;1.00;;
1545;SDS011;766;51.502;9.752;2023-03-14T08:26:11;3.90;;;1.08;;
1545;SDS011;766;51.502;9.752;2023-03-14T08:28:40;1.65;;;0.80;;
1545;SDS011;766;51.502;9.752;2023-03-14T08:31:08;3.97;;;1.10;;
1545;SDS011;766;51.502;9.752;2023-03-14T08:33:37;3.30;;;1.02;;
1545;SDS011;766;51.502;9.752;2023-03-14T08:36:06;3.25;;;1.10;;
1545;SDS011;766;51.502;9.752;2023-03-14T08:38:35;4.35;;;1.20;;
1545;SDS011;766;51.502;9.752;2023-03-14T08:41:03;6.00;;;1.10;;
1545;SDS011;766;51.502;9.752;2023-03-14T08:43:33;3.40;;;0.98;;
1545;SDS011;766;51.502;9.752;2023-03-14T08:46:02;2.55;;;1.05;;
1545;SDS011;766;51.502;9.752;2023-03-14T08:48:31;1.92;;;0.90;;
1545;SDS011;766;51.502;9.752;2023-03-14T08:51:03;2.13;;;1.02;;
1545;SDS011;766;51.502;9.752;2023-03-14T08:53:35;2.45;;;0.80;;
1545;SDS011;766;51.502;9.752;2023-03-14T08:56:04;5.80;;;1.10;;
1545;SDS011;766;51.502;9.752;2023-03-14T08:58:37;2.95;;;1.00;;
1545;SDS011;766;51.502;9.752;2023-03-14T09:01:07;3.40;;;0.82;;
1545;SDS011;766;51.502;9.752;2023-03-14T09:03:37;4.15;;;1.17;;
1545;SDS011;766;51.502;9.752;2023-03-14T09:06:06;4.03;;;0.50;;
1545;SDS011;766;51.502;9.752;2023-03-14T09:08:36;2.80;;;0.90;;
1545;SDS011;766;51.502;9.752;2023-03-14T09:11:06;4.22;;;0.80;;
1545;SDS011;766;51.502;9.752;2023-03-14T09:13:35;2.22;;;0.80;;
1545;SDS011;766;51.502;9.752;2023-03-14T09:16:05;0.93;;;0.77;;
1545;SDS011;766;51.502;9.752;2023-03-14T09:18:35;3.38;;;0.80;;
1545;SDS011;766;51.502;9.752;2023-03-14T09:21:04;3.40;;;0.88;;
1545;SDS011;766;51.502;9.752;2023-03-14T09:23:32;3.25;;;0.90;;
1545;SDS011;766;51.502;9.752;2023-03-14T09:26:01;1.35;;;0.60;;
1545;SDS011;766;51.502;9.752;2023-03-14T09:28:32;0.98;;;0.63;;
1545;SDS011;766;51.502;9.752;2023-03-14T09:31:06;3.42;;;0.70;;
1545;SDS011;766;51.502;9.752;2023-03-14T09:33:35;0.93;;;0.60;;
1545;SDS011;766;51.502;9.752;2023-03-14T09:36:04;0.82;;;0.40;;
1545;SDS011;766;51.502;9.752;2023-03-14T09:38:34;1.95;;;0.68;;
1545;SDS011;766;51.502;9.752;2023-03-14T09:41:06;1.77;;;0.60;;
1545;SDS011;766;51.502;9.752;2023-03-14T09:43:42;2.22;;;0.70;;
1545;SDS011;766;51.502;9.752;2023-03-14T09:46:14;0.68;;;0.57;;
1545;SDS011;766;51.502;9.752;2023-03-14T09:48:43;3.08;;;0.70;;
1545;SDS011;766;51.502;9.752;2023-03-14T09:51:13;2.80;;;0.60;;
1545;SDS011;766;51.502;9.752;2023-03-14T09:53:44;1.48;;;0.70;;
1545;SDS011;766;51.502;9.752;2023-03-14T09:56:15;1.42;;;0.57;;
1545;SDS011;766;51.502;9.752;2023-03-14T09:58:48;1.30;;;0.57;;
1545;SDS011;766;51.502;9.752;2023-03-14T10:01:22;3.67;;;0.70;;
1545;SDS011;766;51.502;9.752;2023-03-14T10:03:53;1.23;;;0.60;;
1545;SDS011;766;51.502;9.752;2023-03-14T10:06:23;3.80;;;0.65;;
1545;SDS011;766;51.502;9.752;2023-03-14T10:08:54;2.17;;;0.60;;
1545;SDS011;766;51.502;9.752;2023-03-14T10:11:24;1.38;;;0.60;;
1545;SDS011;766;51.502;9.752;2023-03-14T10:14:03;2.13;;;0.68;;
1545;SDS011;766;51.502;9.752;2023-03-14T10:16:35;1.10;;;0.55;;
1545;SDS011;766;51.502;9.752;2023-03-14T10:19:05;1.27;;;0.50;;
1545;SDS011;766;51.502;9.752;2023-03-14T10:21:36;0.95;;;0.47;;
1545;SDS011;766;51.502;9.752;2023-03-14T10:24:10;0.98;;;0.60;;
1545;SDS011;766;51.502;9.752;2023-03-14T10:26:49;2.17;;;0.55;;
1545;SDS011;766;51.502;9.752;2023-03-14T10:29:20;3.95;;;0.50;;
1545;SDS011;766;51.502;9.752;2023-03-14T10:31:52;2.38;;;0.70;;
1545;SDS011;766;51.502;9.752;2023-03-14T10:34:22;3.45;;;0.65;;
1545;SDS011;766;51.502;9.752;2023-03-14T10:36:52;3.67;;;0.73;;
1545;SDS011;766;51.502;9.752;2023-03-14T10:39:23;1.10;;;0.70;;
1545;SDS011;766;51.502;9.752;2023-03-14T10:41:54;1.08;;;0.90;;
1545;SDS011;766;51.502;9.752;2023-03-14T10:44:25;1.73;;;0.75;;
1545;SDS011;766;51.502;9.752;2023-03-14T10:46:58;2.20;;;0.68;;
1545;SDS011;766;51.502;9.752;2023-03-14T10:49:28;2.65;;;1.00;;
1545;SDS011;766;51.502;9.752;2023-03-14T10:52:00;1.65;;;0.60;;
1545;SDS011;766;51.502;9.752;2023-03-14T10:54:39;2.75;;;0.65;;
1545;SDS011;766;51.502;9.752;2023-03-14T10:57:11;0.82;;;0.68;;
1545;SDS011;766;51.502;9.752;2023-03-14T10:59:39;2.83;;;0.90;;
1545;SDS011;766;51.502;9.752;2023-03-14T11:02:19;1.20;;;0.70;;
1545;SDS011;766;51.502;9.752;2023-03-14T11:05:03;1.58;;;0.80;;
1545;SDS011;766;51.502;9.752;2023-03-14T11:07:42;2.92;;;0.90;;
1545;SDS011;766;51.502;9.752;2023-03-14T11:10:14;1.70;;;0.73;;
1545;SDS011;766;51.502;9.752;2023-03-14T11:12:53;1.55;;;0.70;;
1545;SDS011;766;51.502;9.752;2023-03-14T11:15:34;4.03;;;0.80;;
1545;SDS011;766;51.502;9.752;2023-03-14T11:18:12;2.97;;;0.63;;
1545;SDS011;766;51.502;9.752;2023-03-14T11:20:52;1.65;;;0.73;;
1545;SDS011;766;51.502;9.752;2023-03-14T11:23:25;0.70;;;0.57;;
1545;SDS011;766;51.502;9.752;2023-03-14T11:25:59;2.63;;;0.73;;
1545;SDS011;766;51.502;9.752;2023-03-14T11:28:37;1.52;;;0.60;;
1545;SDS011;766;51.502;9.752;2023-03-14T11:31:11;1.40;;;0.80;;
1545;SDS011;766;51.502;9.752;2023-03-14T11:33:49;0.93;;;0.52;;
1545;SDS011;766;51.502;9.752;2023-03-14T11:36:25;2.58;;;0.43;;
1545;SDS011;766;51.502;9.752;2023-03-14T11:38:58;0.70;;;0.50;;
1545;SDS011;766;51.502;9.752;2023-03-14T11:41:29;1.13;;;0.60;;
1545;SDS011;766;51.502;9.752;2023-03-14T11:44:01;0.93;;;0.60;;
1545;SDS011;766;51.502;9.752;2023-03-14T11:46:38;0.55;;;0.38;;
1545;SDS011;766;51.502;9.752;2023-03-14T11:49:13;2.25;;;0.70;;
1545;SDS011;766;51.502;9.752;2023-03-14T11:51:55;1.70;;;0.73;;
1545;SDS011;766;51.502;9.752;2023-03-14T11:54:29;2.65;;;0.68;;
1545;SDS011;766;51.502;9.752;2023-03-14T11:57:09;1.50;;;0.70;;
1545;SDS011;766;51.502;9.752;2023-03-14T11:59:42;1.25;;;0.52;;
1545;SDS011;766;51.502;9.752;2023-03-14T12:02:17;1.85;;;0.60;;
1545;SDS011;766;51.502;9.752;2023-03-14T12:05:01;1.35;;;0.95;;
1545;SDS011;766;51.502;9.752;2023-03-14T12:07:58;1.35;;;0.68;;
1545;SDS011;766;51.502;9.752;2023-03-14T12:10:52;3.08;;;1.25;;
1545;SDS011;766;51.502;9.752;2023-03-14T12:13:27;2.20;;;0.75;;
1545;SDS011;766;51.502;9.752;2023-03-14T12:15:58;3.28;;;0.80;;
1545;SDS011;766;51.502;9.752;2023-03-14T12:18:28;1.98;;;1.58;;
1545;SDS011;766;51.502;9.752;2023-03-14T12:21:01;4.40;;;0.75;;
1545;SDS011;766;51.502;9.752;2023-03-14T12:23:34;0.57;;;0.30;;
1545;SDS011;766;51.502;9.752;2023-03-14T12:26:13;1.75;;;0.40;;
1545;SDS011;766;51.502;9.752;2023-03-14T12:28:44;3.55;;;0.55;;
1545;SDS011;766;51.502;9.752;2023-03-14T12:31:38;3.72;;;0.52;;
1545;SDS011;766;51.502;9.752;2023-03-14T12:34:26;2.38;;;0.30;;
1545;SDS011;766;51.502;9.752;2023-03-14T12:37:04;0.50;;;0.50;;
1545;SDS011;766;51.502;9.752;2023-03-14T12:39:42;2.65;;;0.20;;
1545;SDS011;766;51.502;9.752;2023-03-14T12:42:20;0.20;;;0.20;;
1545;SDS011;766;51.502;9.752;2023-03-14T12:45:15;1.58;;;0.28;;
1545;SDS011;766;51.502;9.752;2023-03-14T12:47:54;0.68;;;0.30;;
1545;SDS011;766;51.502;9.752;2023-03-14T12:50:41;0.47;;;0.20;;
1545;SDS011;766;51.502;9.752;2023-03-14T12:56:21;0.30;;;0.30;;
1545;SDS011;766;51.502;9.752;2023-03-14T12:59:00;1.25;;;0.30;;
1545;SDS011;766;51.502;9.752;2023-03-14T13:01:43;3.10;;;0.20;;
1545;SDS011;766;51.502;9.752;2023-03-14T13:04:14;0.20;;;0.20;;
1545;SDS011;766;51.502;9.752;2023-03-14T13:06:55;0.30;;;0.30;;
1545;SDS011;766;51.502;9.752;2023-03-14T13:09:50;0.25;;;0.25;;
1545;SDS011;766;51.502;9.752;2023-03-14T13:12:23;0.20;;;0.20;;
1545;SDS011;766;51.502;9.752;2023-03-14T13:14:59;0.20;;;0.20;;
1545;SDS011;766;51.502;9.752;2023-03-14T13:17:31;0.10;;;0.10;;
1545;SDS011;766;51.502;9.752;2023-03-14T13:20:05;1.00;;;0.35;;
1545;SDS011;766;51.502;9.752;2023-03-14T13:22:45;0.50;;;0.20;;
1545;SDS011;766;51.502;9.752;2023-03-14T13:25:19;0.20;;;0.20;;
1545;SDS011;766;51.502;9.752;2023-03-14T13:27:52;0.20;;;0.20;;
1545;SDS011;766;51.502;9.752;2023-03-14T13:30:23;0.10;;;0.10;;
1545;SDS011;766;51.502;9.752;2023-03-14T13:32:54;0.25;;;0.25;;
1545;SDS011;766;51.502;9.752;2023-03-14T13:35:24;0.20;;;0.20;;
1545;SDS011;766;51.502;9.752;2023-03-14T13:37:55;0.55;;;0.20;;
1545;SDS011;766;51.502;9.752;2023-03-14T13:40:38;0.10;;;0.10;;
1545;SDS011;766;51.502;9.752;2023-03-14T13:43:11;0.20;;;0.20;;
1545;SDS011;766;51.502;9.752;2023-03-14T13:45:49;0.20;;;0.20;;
1545;SDS011;766;51.502;9.752;2023-03-14T13:48:19;0.75;;;0.28;;
1545;SDS011;766;51.502;9.752;2023-03-14T13:50:50;3.00;;;0.30;;
1545;SDS011;766;51.502;9.752;2023-03-14T13:53:22;1.67;;;0.30;;
1545;SDS011;766;51.502;9.752;2023-03-14T13:55:52;1.17;;;0.30;;
1545;SDS011;766;51.502;9.752;2023-03-14T13:58:23;1.75;;;0.50;;
1545;SDS011;766;51.502;9.752;2023-03-14T14:01:01;1.55;;;0.30;;
1545;SDS011;766;51.502;9.752;2023-03-14T14:03:32;3.92;;;0.88;;
1545;SDS011;766;51.502;9.752;2023-03-14T14:06:04;2.00;;;0.60;;
1545;SDS011;766;51.502;9.752;2023-03-14T14:08:40;3.70;;;0.80;;
1545;SDS011;766;51.502;9.752;2023-03-14T14:11:12;1.90;;;0.77;;
1545;SDS011;766;51.502;9.752;2023-03-14T14:13:58;1.88;;;0.52;;
1545;SDS011;766;51.502;9.752;2023-03-14T14:16:30;0.93;;;0.55;;
1545;SDS011;766;51.502;9.752;2023-03-14T14:19:00;2.60;;;0.57;;
1545;SDS011;766;51.502;9.752;2023-03-14T14:21:31;2.25;;;0.60;;
1545;SDS011;766;51.502;9.752;2023-03-14T14:23:59;6.25;;;0.75;;
1545;SDS011;766;51.502;9.752;2023-03-14T14:26:30;3.33;;;0.82;;
1545;SDS011;766;51.502;9.752;2023-03-14T14:29:04;6.03;;;0.63;;
1545;SDS011;766;51.502;9.752;2023-03-14T14:31:33;5.30;;;0.77;;
1545;SDS011;766;51.502;9.752;2023-03-14T14:34:02;3.83;;;0.90;;
1545;SDS011;766;51.502;9.752;2023-03-14T14:36:32;7.20;;;1.33;;
1545;SDS011;766;51.502;9.752;2023-03-14T14:39:09;3.10;;;0.80;;
1545;SDS011;766;51.502;9.752;2023-03-14T14:41:42;4.72;;;0.90;;
1545;SDS011;766;51.502;9.752;2023-03-14T14:44:12;5.35;;;1.08;;
1545;SDS011;766;51.502;9.752;2023-03-14T14:46:41;6.65;;;1.30;;
1545;SDS011;766;51.502;9.752;2023-03-14T14:49:10;6.60;;;1.08;;
1545;SDS011;766;51.502;9.752;2023-03-14T14:51:42;2.25;;;0.80;;
1545;SDS011;766;51.502;9.752;2023-03-14T14:54:13;6.45;;;1.35;;
1545;SDS011;766;51.502;9.752;2023-03-14T14:56:48;6.35;;;1.10;;
1545;SDS011;766;51.502;9.752;2023-03-14T14:59:20;6.22;;;0.90;;
1545;SDS011;766;51.502;9.752;2023-03-14T15:01:54;5.00;;;1.10;;
1545;SDS011;766;51.502;9.752;2023-03-14T15:04:25;4.25;;;0.80;;
1545;SDS011;766;51.502;9.752;2023-03-14T15:06:54;7.75;;;1.20;;
1545;SDS011;766;51.502;9.752;2023-03-14T15:09:23;6.68;;;1.25;;
1545;SDS011;766;51.502;9.752;2023-03-14T15:11:53;5.15;;;1.10;;
1545;SDS011;766;51.502;9.752;2023-03-14T15:14:21;6.45;;;1.02;;
1545;SDS011;766;51.502;9.752;2023-03-14T15:16:49;3.70;;;0.88;;
1545;SDS011;766;51.502;9.752;2023-03-14T15:19:20;2.95;;;1.17;;
1545;SDS011;766;51.502;9.752;2023-03-14T15:21:51;4.25;;;0.90;;
1545;SDS011;766;51.502;9.752;2023-03-14T15:24:21;4.68;;;1.10;;
1545;SDS011;766;51.502;9.752;2023-03-14T15:26:54;6.70;;;1.05;;
1545;SDS011;766;51.502;9.752;2023-03-14T15:29:23;4.43;;;1.35;;
1545;SDS011;766;51.502;9.752;2023-03-14T15:31:55;12.88;;;2.20;;
1545;SDS011;766;51.502;9.752;2023-03-14T15:34:23;9.00;;;2.08;;
1545;SDS011;766;51.502;9.752;2023-03-14T15:36:52;10.10;;;1.90;;
1545;SDS011;766;51.502;9.752;2023-03-14T15:39:20;11.20;;;1.77;;
1545;SDS011;766;51.502;9.752;2023-03-14T15:41:48;10.63;;;1.42;;
1545;SDS011;766;51.502;9.752;2023-03-14T15:44:19;15.30;;;1.95;;
1545;SDS011;766;51.502;9.752;2023-03-14T15:46:48;11.57;;;1.92;;
1545;SDS011;766;51.502;9.752;2023-03-14T15:49:16;15.73;;;2.58;;
1545;SDS011;766;51.502;9.752;2023-03-14T15:51:45;13.73;;;2.17;;
1545;SDS011;766;51.502;9.752;2023-03-14T15:54:13;10.00;;;1.83;;
1545;SDS011;766;51.502;9.752;2023-03-14T15:56:42;7.95;;;1.67;;
1545;SDS011;766;51.502;9.752;2023-03-14T15:59:10;7.57;;;1.70;;
1545;SDS011;766;51.502;9.752;2023-03-14T16:01:40;10.73;;;1.55;;